• Join FlightAware (Why Join?)
  • Login
  • US Flag 
09:34PM EDT


 

Airport Tracker/Info


-or-


 

Live Flight TrackerFlight Track Log ✈ GGN7281 ✈ 21-Apr-2013 ✈ KROC - CYYZ

Flight Track Log - Related Links

Times and Time Zones

All times are in EDT time to prevent confusion due to time zone crossing. See the GGN7281 flight status page for this flight to view local times or setup timezone preferences in your user account.

Time Position Orientation Groundspeed Altitude Reporting Facility
EDT Latitude Longitude Course Direction KTS MPH feet Rate Location/Type
06:35PM 43.1281 -77.6703 280° West 164 189 1,400  Level Cleveland Center
06:35PM 43.1383 -77.6611 33° Northeast 166 191 1,800 1,320 Climbing Cleveland Center
06:36PM 43.1844 -77.6819 342° North 219 252 3,200 1,080 Climbing Cleveland Center
06:37PM 43.1919 -77.7300 282° West 236 272 3,800 1,020 Climbing Cleveland Center
06:38PM 43.1961 -77.8153 274° West 243 280 5,100 1,200 Climbing Cleveland Center
06:39PM 43.1961 -77.9006 270° West 232 267 6,200 1,080 Climbing Cleveland Center
06:40PM 43.1981 -77.9917 272° West 232 267 7,300 1,200 Climbing Cleveland Center
06:41PM 43.1426 -77.9740 280° West  Level FlightAware Approximate
06:41PM 43.2000 -78.0800 272° West 232 267 8,600  Level Cleveland Center
06:42PM 43.2042 -78.1681 274° West 232 267 9,700 1,080 Climbing Cleveland Center
06:43PM 43.2058 -78.2564 272° West 232 267 10,800 960 Climbing Cleveland Center
06:44PM 43.2056 -78.3444 270° West 232 267 11,700 600 Climbing Cleveland Center
06:45PM 43.2072 -78.4356 271° West 232 267 12,000 120 Climbing Cleveland Center
06:46PM 43.2111 -78.5294 273° West 237 273 12,000  Level Cleveland Center
06:47PM 43.2275 -78.6317 282° West 243 280 12,000  Level Cleveland Center
06:48PM 43.2372 -78.7253 278° West 248 285 12,000  Level Cleveland Center
06:49PM 43.2469 -78.8192 278° West 254 292 12,000 -240 Level Cleveland Center
06:50PM 43.2500 -78.9167 272° West 250 288 11,500 -540 Descending Toronto Center
06:51PM 43.2667 -79.0167 283° West 260 299 10,800 -780 Descending Toronto Center
06:52PM 43.2667 -79.1333 270° West 260 299 10,000 -840 Descending Toronto Center
06:53PM 43.2833 -79.2167 285° West 260 299 9,200 -720 Descending Toronto Center
06:54PM 43.3000 -79.3167 283° West 270 311 8,600 -600 Descending Toronto Center
06:55PM 43.3500 -79.3833 316° Northwest 260 299 8,100 -300 Descending Toronto Center
06:56PM 43.4333 -79.4000 352° North 260 299 8,000 -60 Descending Toronto Center
06:57PM 43.5000 -79.4333 340° North 260 299 8,000  Level Toronto Center
06:58PM 43.5500 -79.4667 334° Northwest 250 288 8,000 -600 Level Toronto Center
06:59PM 43.5500 -79.5667 270° West 240 276 6,900 -1,080 Descending Toronto Center
07:00PM 43.5167 -79.6333 235° Southwest 230 265 5,900 -1,080 Descending Toronto Center
07:01PM 43.4667 -79.7000 224° Southwest 220 253 4,800 -1,140 Descending Toronto Center
07:02PM 43.4833 -79.7667 289° West 220 253 3,700 -840 Descending Toronto Center
07:03PM 43.5500 -79.7500 10° North 190 219 3,200 -420 Descending Toronto Center
07:04PM 43.5833 -79.7000 47° Northeast 170 196 2,900 -660 Descending Toronto Center
07:05PM 43.6000 -79.6500 65° Northeast 160 184 1,900 -960 Descending Toronto Center
07:06PM 43.6333 -79.6333 20° North 140 161 1,000 -720 Descending Toronto Center
07:07PM 43.6500 -79.5833 65° Northeast 130 150 500 -540 Descending Toronto Center